Flight Track Log - Related Links

Times and Time Zones

All times are in EDT time to prevent confusion due to time zone crossing. See the N56LW flight status page for this flight to view local times or setup timezone preferences in your user account.

Time Position Orientation Groundspeed Altitude Reporting Facility
EDT Latitude Longitude Course Direction KTS MPH feet Rate Location/Type
Sun 02:02:28 PM 28.8500 -81.8500 302° West 227 261 1,400  Level Orlando TRACON
Sun 02:03:10 PM 28.8703 -81.8872 302° West 244 281 1,800 1,091 Climbing Jacksonville Center
Sun 02:04:07 PM 28.9083 -81.9508 304° West 244 281 3,200 2,103 Climbing Jacksonville Center
Sun 02:05:07 PM 28.9483 -82.0122 307° West 250 288 5,900 2,350 Climbing Jacksonville Center
Sun 02:06:07 PM 28.9592 -82.0953 278° West 255 293 7,900 2,450 Climbing Jacksonville Center
Sun 02:07:07 PM 28.9661 -82.1783 275° West 260 299 10,800 1,850 Climbing Jacksonville Center
Sun 02:08:07 PM 29.0206 -82.2514 310° West 273 314 11,600 1,800 Climbing Jacksonville Center
Sun 02:09:07 PM 29.0733 -82.3200 311° West 288 331 14,400 2,600 Climbing Jacksonville Center
Sun 02:10:07 PM 29.1256 -82.3933 309° West 293 337 16,800 2,200 Climbing Jacksonville Center
Sun 02:11:07 PM 29.1781 -82.4644 310° West 293 337 18,800 1,950 Climbing Jacksonville Center
Sun 02:12:07 PM 29.2306 -82.5381 309° West 293 337 20,700 1,900 Climbing Jacksonville Center
Sun 02:13:07 PM 29.2850 -82.6117 310° West 293 337 22,600 1,900 Climbing Jacksonville Center
Sun 02:14:07 PM 29.3372 -82.6853 309° West 298 343 24,500 1,550 Climbing Jacksonville Center
Sun 02:15:07 PM 29.3939 -82.7614 311° West 298 343 25,700 750 Climbing Jacksonville Center
Sun 02:16:07 PM 29.4522 -82.8450 309° West 316 364 26,000 700 Climbing Jacksonville Center
Sun 02:17:07 PM 29.5025 -82.9283 305° West 340 391 27,100 900 Climbing Jacksonville Center
Sun 02:18:07 PM 29.5317 -83.0358 287° West 346 398 27,800 450 Climbing Jacksonville Center
Sun 02:19:07 PM 29.5586 -83.1408 286° West 351 404 28,000 100 Climbing Jacksonville Center
Sun 02:20:07 PM 29.5894 -83.2675 286° West 362 417 28,000  Level Jacksonville Center
Sun 02:21:07 PM 29.6206 -83.3800 288° West 362 417 28,000  Level Jacksonville Center
Sun 02:22:07 PM 29.6514 -83.4972 287° West 367 422 28,000  Level Jacksonville Center
Sun 02:23:07 PM 29.6819 -83.6097 287° West 367 422 28,000  Level Jacksonville Center
Sun 02:24:07 PM 29.7378 -83.7106 303° West 367 422 28,000  Level Jacksonville Center
Sun 02:25:07 PM 29.7769 -83.8042 296° West 367 422 28,000  Level Jacksonville Center
Sun 02:26:07 PM 29.8053 -83.9194 286° West 367 422 28,000  Level Jacksonville Center
Sun 02:27:07 PM 29.8333 -84.0347 286° West 373 429 28,000  Level Jacksonville Center
Sun 02:28:07 PM 29.8617 -84.1522 286° West 373 429 28,000  Level Jacksonville Center
Sun 02:29:07 PM 29.8914 -84.2819 285° West 378 435 28,000  Level Jacksonville Center
Sun 02:30:07 PM 29.9175 -84.3950 285° West 373 429 28,000  Level Jacksonville Center
Sun 02:31:07 PM 29.9453 -84.5131 285° West 373 429 28,000  Level Jacksonville Center
Sun 02:32:07 PM 29.9750 -84.6286 287° West 379 436 28,000  Level Jacksonville Center
Sun 02:33:07 PM 30.0025 -84.7442 285° West 379 436 28,000 -200 Level Jacksonville Center
Sun 02:34:07 PM 30.0300 -84.8597 285° West 379 436 27,600 -800 Descending Jacksonville Center
Sun 02:35:07 PM 30.0575 -84.9781 285° West 374 430 26,400 -1,200 Descending Jacksonville Center
Sun 02:36:07 PM 30.0847 -85.0914 286° West 374 430 25,200 -1,050 Descending Jacksonville Center
Sun 02:37:07 PM 30.1119 -85.2025 286° West 374 430 24,300 -1,000 Descending Jacksonville Center
Sun 02:38:07 PM 30.1372 -85.3111 285° West 361 415 23,200 -650 Descending Jacksonville Center
Sun 02:39:07 PM 30.1578 -85.4269 282° West 361 415 23,000 -100 Descending Jacksonville Center
Sun 02:40:07 PM 30.1828 -85.5308 286° West 354 407 23,000 -400 Level Jacksonville Center
Sun 02:41:07 PM 30.2100 -85.6328 287° West 344 396 22,200 -800 Descending Jacksonville Center
Sun 02:43:00 PM 30.2331 -85.8158 291° West  Level FlightAware Approximate
Sun 02:50:00 PM 30.4000 -86.4667 291° West  Level FlightAware Approximate
Sun 02:51:00 PM 30.4000 -86.4715 90° East  Level Estimated
Sun 02:52:00 PM 30.4000 -86.4667 291° West  Level FlightAware Approximate
Sun 02:53:00 PM 30.4000 -86.4715 90° East  Level Estimated
Sun 02:54:00 PM 30.4000 -86.4667 291° West  Level FlightAware Approximate
Sun 02:55:00 PM 30.4000 -86.4715 90° East  Level Estimated
Sun 02:56:00 PM 30.4000 -86.4667 291° West  Level FlightAware Approximate
Sun 02:57:00 PM 30.4000 -86.4715 90° East  Level Estimated

Login

Don't have an account? Register now (free) for customized features, flight alerts, and more!